Time;durP1;ratioP1;P1;durP2;ratioP2;P2;SDS_P1;SDS_P2;PMS_P1;PMS_P2;Temp;Humidity;BMP_temperature;BMP_pressure;BME280_temperature;BME280_humidity;BME280_pressure;Samples;Min_cycle;Max_cycle;Signal;HPM_P1;HPM_P2
2022/09/17 00:00:49;;;;;;;1.80;1.00;;;14.40;62.50;;;;;;5019892;28;20065;-79
2022/09/17 00:03:14;;;;;;;1.83;0.82;;;14.40;62.10;;;;;;5019898;28;20041;-80
2022/09/17 00:05:40;;;;;;;2.47;1.00;;;14.40;62.20;;;;;;5037258;28;20025;-80
2022/09/17 00:08:10;;;;;;;2.55;0.95;;;14.40;62.40;;;;;;4999063;28;20035;-79
2022/09/17 00:10:38;;;;;;;2.20;1.05;;;14.30;62.20;;;;;;4999053;28;20023;-80
2022/09/17 00:13:04;;;;;;;3.47;1.00;;;14.30;62.40;;;;;;5014065;28;20080;-80
2022/09/17 00:15:30;;;;;;;1.42;0.80;;;14.30;62.50;;;;;;5013822;28;20022;-80
2022/09/17 00:17:56;;;;;;;1.75;0.90;;;14.30;62.20;;;;;;4997756;28;20505;-80
2022/09/17 00:20:24;;;;;;;2.53;0.90;;;14.30;62.20;;;;;;4981446;28;20081;-79
2022/09/17 00:22:50;;;;;;;1.58;0.80;;;14.30;62.40;;;;;;4998371;28;20027;-80
2022/09/17 00:25:15;;;;;;;1.35;0.90;;;14.30;62.50;;;;;;4998737;28;20023;-80
2022/09/17 00:27:41;;;;;;;1.98;0.90;;;14.30;62.40;;;;;;4981545;28;20446;-80
2022/09/17 00:30:07;;;;;;;3.17;0.90;;;14.30;62.60;;;;;;4999227;28;20026;-80
2022/09/17 00:32:33;;;;;;;2.03;0.90;;;14.30;62.50;;;;;;5013770;28;20030;-80
2022/09/17 00:34:58;;;;;;;2.53;0.82;;;14.20;62.30;;;;;;5009640;28;20045;-79
2022/09/17 00:37:24;;;;;;;1.65;1.08;;;14.20;62.50;;;;;;5018167;28;20497;-80
2022/09/17 00:39:50;;;;;;;1.20;0.90;;;14.20;62.90;;;;;;4998839;28;20030;-80
2022/09/17 00:42:17;;;;;;;2.60;1.10;;;14.10;63.00;;;;;;4998500;28;20022;-80
2022/09/17 00:44:52;;;;;;;1.25;0.77;;;14.10;62.70;;;;;;4998701;28;20121;-80
2022/09/17 00:47:33;;;;;;;1.30;0.68;;;14.10;62.90;;;;;;4998780;28;20371;-79
2022/09/17 00:50:16;;;;;;;1.92;0.90;;;14.10;62.90;;;;;;4998494;28;20026;-79
2022/09/17 00:52:46;;;;;;;4.35;1.27;;;14.00;62.70;;;;;;4998388;28;20034;-80
2022/09/17 00:55:26;;;;;;;3.03;1.15;;;14.00;62.80;;;;;;4997750;28;20026;-79
2022/09/17 00:57:57;;;;;;;1.40;0.98;;;13.90;62.80;;;;;;4996653;28;20026;-79
2022/09/17 01:00:23;;;;;;;1.00;0.70;;;13.90;63.00;;;;;;5008221;28;20117;-79
2022/09/17 01:02:52;;;;;;;1.50;1.10;;;13.90;63.00;;;;;;4998132;28;20030;-80
2022/09/17 01:05:20;;;;;;;3.00;1.05;;;14.00;63.00;;;;;;4998167;28;20023;-80
2022/09/17 01:07:58;;;;;;;1.90;1.10;;;13.90;63.00;;;;;;4998082;28;20026;-79
2022/09/17 01:10:26;;;;;;;1.40;0.98;;;13.90;63.10;;;;;;4997950;28;20034;-80
2022/09/17 01:12:52;;;;;;;1.13;0.90;;;13.80;63.20;;;;;;5013279;28;20023;-79
2022/09/17 01:15:35;;;;;;;1.20;0.88;;;13.80;63.20;;;;;;4997782;28;20034;-80
2022/09/17 01:18:32;;;;;;;0.90;0.80;;;13.80;63.20;;;;;;4997780;28;20027;-80
2022/09/17 01:21:06;;;;;;;1.45;0.90;;;13.80;63.50;;;;;;4997853;28;20026;-79
2022/09/17 01:23:44;;;;;;;2.47;1.10;;;13.70;63.50;;;;;;5017159;28;20038;-80
2022/09/17 01:26:16;;;;;;;1.95;1.13;;;13.70;63.40;;;;;;5009966;28;20037;-79
2022/09/17 01:29:11;;;;;;;1.75;1.00;;;13.70;63.30;;;;;;4997784;28;20033;-80
2022/09/17 01:31:52;;;;;;;;;;;;;;;;;;;;;
2022/09/17 01:34:26;;;;;;;2.40;1.35;;;13.70;63.50;;;;;;5002908;28;20109;-80
2022/09/17 01:37:13;;;;;;;1.35;1.00;;;13.70;63.50;;;;;;4981098;28;20081;-79
2022/09/17 01:39:51;;;;;;;1.40;0.82;;;13.60;63.50;;;;;;5012411;28;20035;-80
2022/09/17 01:42:24;;;;;;;1.30;0.82;;;13.60;63.70;;;;;;4997323;28;20537;-79
2022/09/17 01:45:26;;;;;;;1.42;0.90;;;13.60;63.90;;;;;;4997730;28;20054;-79
2022/09/17 01:48:08;;;;;;;1.23;0.80;;;13.50;63.90;;;;;;4978116;28;20101;-79
2022/09/17 01:50:41;;;;;;;1.45;0.70;;;13.60;63.90;;;;;;4997522;28;20088;-79
2022/09/17 01:53:08;;;;;;;2.08;1.00;;;13.50;63.90;;;;;;5015614;28;20029;-79
2022/09/17 01:55:37;;;;;;;1.75;0.93;;;13.60;63.90;;;;;;4992833;28;20031;-79
2022/09/17 01:58:20;;;;;;;2.15;1.02;;;13.50;64.00;;;;;;4997176;28;20477;-79
2022/09/17 02:00:52;;;;;;;3.05;1.15;;;13.40;64.20;;;;;;5012182;28;20027;-79
2022/09/17 02:03:29;;;;;;;2.85;1.30;;;13.50;64.40;;;;;;4997068;28;20034;-79
2022/09/17 02:06:11;;;;;;;1.75;1.02;;;13.40;64.30;;;;;;4996659;28;20482;-80
2022/09/17 02:09:18;;;;;;;1.10;0.93;;;13.30;64.70;;;;;;5025712;28;20037;-79
2022/09/17 02:11:57;;;;;;;3.05;1.02;;;13.30;65.20;;;;;;4955160;29;20648;-80
2022/09/17 02:14:36;;;;;;;3.63;1.30;;;13.20;65.10;;;;;;4992123;28;20065;-79
2022/09/17 02:17:16;;;;;;;2.70;1.00;;;13.20;65.20;;;;;;4996649;28;20031;-79
2022/09/17 02:19:44;;;;;;;1.23;0.80;;;13.10;65.20;;;;;;4997178;28;20449;-80
2022/09/17 02:22:30;;;;;;;2.63;1.13;;;13.10;65.60;;;;;;4996573;28;20026;-80
2022/09/17 02:25:33;;;;;;;1.25;0.90;;;13.10;65.60;;;;;;4996029;28;20097;-80
2022/09/17 02:28:17;;;;;;;3.53;1.15;;;13.10;65.30;;;;;;4996957;28;20501;-79
2022/09/17 02:30:43;;;;;;;2.15;1.10;;;13.00;65.50;;;;;;4996326;28;20036;-80
2022/09/17 02:33:12;;;;;;;1.75;1.20;;;13.00;65.70;;;;;;4996488;28;20105;-79
2022/09/17 02:35:38;;;;;;;1.15;0.90;;;13.00;65.50;;;;;;5015338;28;20065;-80
2022/09/17 02:38:04;;;;;;;1.92;1.23;;;13.10;65.40;;;;;;4995361;28;20482;-79
2022/09/17 02:40:54;;;;;;;1.25;1.00;;;13.10;65.20;;;;;;4996779;28;20482;-79
2022/09/17 02:43:42;;;;;;;2.42;1.10;;;13.10;65.30;;;;;;4988197;28;20049;-79
2022/09/17 02:46:19;;;;;;;3.58;1.50;;;13.00;65.20;;;;;;5011516;28;20113;-79
2022/09/17 02:49:07;;;;;;;1.33;1.05;;;13.00;65.60;;;;;;4996441;28;20057;-79
2022/09/17 02:51:44;;;;;;;3.08;1.10;;;13.00;65.50;;;;;;5011409;28;20026;-80
2022/09/17 02:54:28;;;;;;;1.67;1.00;;;13.00;65.30;;;;;;4996348;28;20026;-80
2022/09/17 02:57:22;;;;;;;1.50;1.00;;;13.00;65.40;;;;;;5011482;28;20118;-79
2022/09/17 03:00:01;;;;;;;2.92;1.00;;;12.90;65.30;;;;;;4973842;28;20068;-79
2022/09/17 03:02:37;;;;;;;1.85;1.58;;;13.00;65.30;;;;;;4994177;28;20121;-79
2022/09/17 03:05:05;;;;;;;2.20;1.40;;;12.90;65.40;;;;;;4996028;28;20030;-79
2022/09/17 03:07:31;;;;;;;3.28;1.30;;;13.00;65.50;;;;;;5011100;28;20106;-79
2022/09/17 03:09:57;;;;;;;1.67;1.13;;;12.90;65.80;;;;;;4994701;28;20062;-78
2022/09/17 03:12:25;;;;;;;1.90;1.25;;;12.80;65.70;;;;;;4995059;28;20076;-78
2022/09/17 03:14:51;;;;;;;2.70;1.45;;;12.80;65.60;;;;;;4995834;28;20028;-78
2022/09/17 03:17:17;;;;;;;2.33;1.10;;;12.80;65.90;;;;;;4993447;28;20129;-78
2022/09/17 03:19:43;;;;;;;2.13;1.00;;;12.80;65.70;;;;;;4995242;28;20030;-78
2022/09/17 03:22:08;;;;;;;1.52;0.90;;;12.80;65.80;;;;;;5010952;28;20597;-78
2022/09/17 03:24:34;;;;;;;3.00;1.30;;;12.80;65.70;;;;;;4995733;28;20062;-78
2022/09/17 03:27:00;;;;;;;1.73;1.35;;;12.80;65.70;;;;;;4995862;28;20026;-78
2022/09/17 03:29:25;;;;;;;2.80;1.05;;;12.80;65.70;;;;;;4995784;28;20053;-78
2022/09/17 03:31:51;;;;;;;2.53;1.15;;;12.70;66.00;;;;;;4995683;28;20034;-78
2022/09/17 03:34:17;;;;;;;2.85;1.40;;;12.60;66.40;;;;;;5001541;28;20018;-78
2022/09/17 03:36:43;;;;;;;2.20;1.20;;;12.60;66.20;;;;;;4996125;28;20029;-78
2022/09/17 03:39:08;;;;;;;3.95;1.20;;;12.70;66.10;;;;;;4995137;28;20027;-78
2022/09/17 03:41:34;;;;;;;3.15;1.50;;;12.70;66.10;;;;;;4995748;28;20031;-78
2022/09/17 03:44:00;;;;;;;1.88;1.23;;;12.70;66.20;;;;;;4997105;28;20038;-78
2022/09/17 03:46:25;;;;;;;2.42;1.40;;;12.60;66.10;;;;;;5015106;28;20037;-78
2022/09/17 03:48:51;;;;;;;2.70;1.30;;;12.50;66.30;;;;;;4997856;28;20528;-78
2022/09/17 03:51:17;;;;;;;2.03;1.27;;;12.50;66.40;;;;;;4987665;28;20568;-78
2022/09/17 03:53:42;;;;;;;1.77;1.30;;;12.60;66.20;;;;;;4995488;28;20048;-79
2022/09/17 03:56:08;;;;;;;2.50;1.38;;;12.50;66.40;;;;;;5010983;28;20030;-78
2022/09/17 03:58:34;;;;;;;2.15;1.30;;;12.50;66.30;;;;;;4994880;28;20049;-78
2022/09/17 04:01:02;;;;;;;1.52;1.20;;;12.50;66.50;;;;;;4994026;28;20026;-78
2022/09/17 04:03:27;;;;;;;2.58;1.20;;;12.50;66.40;;;;;;4995386;28;20045;-78
2022/09/17 04:05:56;;;;;;;1.80;1.10;;;12.50;66.50;;;;;;4995517;28;20042;-78
2022/09/17 04:08:22;;;;;;;2.78;1.60;;;12.40;66.60;;;;;;4994741;28;20051;-78
2022/09/17 04:10:48;;;;;;;1.40;1.27;;;12.40;66.80;;;;;;4995302;28;20034;-78
2022/09/17 04:13:15;;;;;;;2.20;1.65;;;12.40;66.70;;;;;;4994334;28;20026;-80
2022/09/17 04:15:41;;;;;;;2.63;1.38;;;12.40;66.60;;;;;;4994991;28;20026;-78
2022/09/17 04:18:07;;;;;;;3.05;1.63;;;12.40;66.60;;;;;;4995691;28;20061;-78
2022/09/17 04:20:33;;;;;;;3.03;1.50;;;12.40;66.70;;;;;;4995444;28;20030;-78
2022/09/17 04:22:58;;;;;;;2.15;1.35;;;12.40;66.70;;;;;;4995299;28;20022;-78
2022/09/17 04:25:24;;;;;;;1.90;1.50;;;12.30;66.70;;;;;;4994097;28;20045;-78
2022/09/17 04:27:50;;;;;;;3.78;1.30;;;12.30;66.90;;;;;;4996152;28;20084;-80
2022/09/17 04:30:16;;;;;;;3.50;1.63;;;12.30;66.90;;;;;;4997313;28;20073;-78
2022/09/17 04:32:44;;;;;;;3.15;1.52;;;12.30;67.10;;;;;;4998538;28;20023;-79
2022/09/17 04:35:10;;;;;;;1.52;1.10;;;12.30;67.10;;;;;;4989011;28;20026;-78
2022/09/17 04:37:36;;;;;;;3.75;1.48;;;12.30;67.00;;;;;;4998624;28;20022;-78
2022/09/17 04:40:05;;;;;;;2.20;1.60;;;12.30;67.00;;;;;;4998752;28;20034;-78
2022/09/17 04:42:30;;;;;;;3.03;1.42;;;12.30;67.10;;;;;;4998857;28;20410;-78
2022/09/17 04:44:56;;;;;;;3.53;1.30;;;12.20;67.00;;;;;;5000922;28;20058;-78
2022/09/17 04:47:23;;;;;;;2.47;1.63;;;12.30;66.90;;;;;;4997146;28;20401;-80
2022/09/17 04:49:48;;;;;;;1.70;1.20;;;12.30;66.70;;;;;;4998452;28;20158;-78
2022/09/17 04:52:14;;;;;;;5.35;1.30;;;12.20;66.60;;;;;;4997668;28;20038;-80
2022/09/17 04:54:40;;;;;;;2.53;1.40;;;12.20;66.70;;;;;;4996635;28;20022;-78
2022/09/17 04:57:08;;;;;;;2.47;1.40;;;12.20;66.70;;;;;;4998138;28;20030;-78
2022/09/17 04:59:34;;;;;;;4.10;1.50;;;12.20;66.70;;;;;;4998450;28;20023;-78
2022/09/17 05:02:00;;;;;;;3.47;1.70;;;12.20;66.70;;;;;;5004522;28;20030;-78
2022/09/17 05:04:25;;;;;;;2.67;1.90;;;12.20;66.90;;;;;;5004408;28;20025;-78
2022/09/17 05:06:51;;;;;;;3.22;1.52;;;12.20;67.00;;;;;;4989888;28;20034;-78
2022/09/17 05:09:17;;;;;;;1.67;1.52;;;12.20;66.70;;;;;;5017854;28;20034;-78
2022/09/17 05:11:42;;;;;;;1.90;1.48;;;12.20;66.90;;;;;;5017850;28;20038;-79
2022/09/17 05:14:10;;;;;;;3.78;1.55;;;12.20;66.80;;;;;;5009317;28;20034;-78
2022/09/17 05:16:36;;;;;;;2.15;1.15;;;12.10;66.80;;;;;;4996977;28;20362;-79
2022/09/17 05:19:03;;;;;;;7.35;1.77;;;12.10;66.80;;;;;;5000303;28;20026;-78
2022/09/17 05:21:28;;;;;;;4.47;1.80;;;12.20;66.70;;;;;;5016613;28;20034;-79
2022/09/17 05:23:54;;;;;;;1.60;1.13;;;12.10;66.60;;;;;;4986585;28;20026;-79
2022/09/17 05:26:20;;;;;;;3.50;1.92;;;12.10;66.60;;;;;;5013143;28;20480;-79
2022/09/17 05:28:45;;;;;;;1.95;1.30;;;12.10;66.70;;;;;;4998296;28;20404;-79
2022/09/17 05:31:13;;;;;;;2.90;1.40;;;12.00;66.70;;;;;;4997753;28;20061;-79
2022/09/17 05:33:39;;;;;;;1.20;1.08;;;12.00;66.60;;;;;;4998555;28;20033;-79
2022/09/17 05:36:05;;;;;;;1.88;1.23;;;12.00;66.60;;;;;;5000265;28;20489;-79
2022/09/17 05:38:31;;;;;;;2.45;1.70;;;12.00;66.70;;;;;;4981317;28;20030;-79
2022/09/17 05:40:57;;;;;;;3.22;1.60;;;12.00;66.70;;;;;;4996196;28;20397;-79
2022/09/17 05:43:23;;;;;;;3.08;1.33;;;11.90;66.90;;;;;;4997580;28;20050;-79
2022/09/17 05:45:48;;;;;;;2.40;1.50;;;11.90;66.90;;;;;;5001855;28;20030;-79
2022/09/17 05:48:22;;;;;;;2.65;1.52;;;11.90;66.70;;;;;;5012989;28;20481;-78
2022/09/17 05:50:48;;;;;;;1.70;1.30;;;11.90;66.80;;;;;;4982142;28;20625;-79
2022/09/17 05:53:14;;;;;;;3.75;1.60;;;11.90;66.70;;;;;;4996444;28;20081;-79
2022/09/17 05:55:39;;;;;;;2.17;1.40;;;11.80;66.90;;;;;;4996119;28;20113;-79
2022/09/17 05:58:14;;;;;;;1.20;1.10;;;11.80;67.00;;;;;;4996226;28;20054;-79
2022/09/17 06:00:41;;;;;;;2.20;1.40;;;11.80;66.90;;;;;;4997829;28;20564;-79
2022/09/17 06:03:11;;;;;;;3.30;1.50;;;11.80;67.00;;;;;;4998469;28;20057;-79
2022/09/17 06:05:37;;;;;;;1.83;1.30;;;11.80;66.90;;;;;;4998134;28;20030;-79
2022/09/17 06:08:02;;;;;;;3.92;1.52;;;11.80;67.00;;;;;;5015320;28;20032;-77
2022/09/17 06:10:28;;;;;;;3.40;1.40;;;11.80;67.10;;;;;;5000487;28;20413;-78
2022/09/17 06:12:58;;;;;;;2.10;1.38;;;11.90;67.00;;;;;;5002952;28;20062;-74
2022/09/17 06:15:25;;;;;;;3.72;2.22;;;11.90;67.00;;;;;;4997158;28;20018;-74
2022/09/17 06:17:51;;;;;;;5.82;3.55;;;11.90;66.90;;;;;;4997816;28;20062;-74
2022/09/17 06:20:17;;;;;;;7.25;3.90;;;12.00;66.80;;;;;;5016159;28;20022;-74
2022/09/17 06:22:43;;;;;;;5.00;3.38;;;12.00;66.80;;;;;;4997401;28;20515;-74
2022/09/17 06:25:09;;;;;;;4.40;2.63;;;12.00;67.00;;;;;;5007103;28;20026;-74
2022/09/17 06:27:35;;;;;;;2.67;1.75;;;12.00;67.00;;;;;;5011257;28;20041;-74
2022/09/17 06:30:01;;;;;;;8.15;2.58;;;12.00;66.90;;;;;;5016631;28;20029;-74
2022/09/17 06:32:28;;;;;;;3.63;2.00;;;12.00;67.30;;;;;;5048054;28;20037;-75
2022/09/17 06:34:54;;;;;;;3.55;1.88;;;12.00;67.30;;;;;;5013508;28;20033;-77
2022/09/17 06:37:26;;;;;;;3.38;2.10;;;12.00;67.30;;;;;;5014712;28;20018;-77
2022/09/17 06:39:51;;;;;;;2.13;1.58;;;12.00;67.70;;;;;;4998910;28;20029;-76
2022/09/17 06:42:17;;;;;;;3.85;1.75;;;12.00;67.30;;;;;;5008663;28;20030;-80
2022/09/17 06:44:42;;;;;;;4.10;1.60;;;12.10;67.50;;;;;;4995312;28;20058;-79
2022/09/17 06:47:08;;;;;;;5.68;1.90;;;12.10;67.40;;;;;;5007313;28;20060;-78
2022/09/17 06:49:34;;;;;;;4.45;1.80;;;12.10;67.80;;;;;;5005819;28;20677;-77
2022/09/17 06:52:00;;;;;;;3.08;1.60;;;12.10;67.70;;;;;;5002743;28;20489;-79
2022/09/17 06:54:26;;;;;;;2.88;1.45;;;12.20;67.50;;;;;;5014130;28;20091;-78
2022/09/17 06:56:51;;;;;;;2.08;1.30;;;12.20;67.30;;;;;;5008766;28;20026;-78
2022/09/17 06:59:17;;;;;;;2.00;1.58;;;12.20;67.30;;;;;;5012986;28;20030;-79
2022/09/17 07:01:43;;;;;;;3.05;1.20;;;12.30;67.20;;;;;;4997004;28;20030;-78
2022/09/17 07:04:09;;;;;;;3.80;1.85;;;12.30;67.20;;;;;;4996521;28;20049;-78
2022/09/17 07:06:34;;;;;;;2.22;1.40;;;12.30;67.20;;;;;;5010302;28;20468;-78
2022/09/17 07:09:00;;;;;;;2.78;1.50;;;12.30;67.10;;;;;;5015613;28;20516;-78
2022/09/17 07:11:28;;;;;;;2.28;1.40;;;12.40;67.10;;;;;;5015310;28;20105;-78
2022/09/17 07:13:54;;;;;;;2.85;1.45;;;12.50;67.20;;;;;;5013870;28;20402;-78
2022/09/17 07:16:20;;;;;;;4.00;1.35;;;12.70;66.80;;;;;;5012933;28;20017;-78
2022/09/17 07:18:46;;;;;;;2.65;1.40;;;12.70;66.50;;;;;;5014174;28;20037;-79
2022/09/17 07:21:11;;;;;;;2.67;1.20;;;13.20;66.00;;;;;;5003667;28;20040;-79
2022/09/17 07:23:37;;;;;;;8.40;1.73;;;14.30;63.10;;;;;;4997813;28;20038;-79
2022/09/17 07:26:06;;;;;;;4.53;1.38;;;16.20;58.70;;;;;;5008444;28;20559;-80
2022/09/17 07:28:32;;;;;;;4.53;1.17;;;18.50;53.20;;;;;;5012720;28;20116;-81
2022/09/17 07:31:01;;;;;;;8.95;1.20;;;20.40;48.00;;;;;;4992346;28;20034;-79
2022/09/17 07:33:26;;;;;;;2.05;0.80;;;21.60;44.80;;;;;;5011391;28;20030;-80
2022/09/17 07:35:57;;;;;;;2.50;0.85;;;22.30;42.70;;;;;;5009854;28;20080;-80
2022/09/17 07:38:24;;;;;;;4.55;0.85;;;22.90;42.10;;;;;;5011705;28;20028;-80
2022/09/17 07:40:58;;;;;;;3.80;0.90;;;22.90;41.70;;;;;;5012313;28;20028;-80
2022/09/17 07:43:28;;;;;;;3.10;0.63;;;21.80;42.30;;;;;;5007165;28;20527;-79
2022/09/17 07:45:55;;;;;;;;;;;20.10;46.50;;;;;;5005979;28;20090;-79
2022/09/17 07:48:21;;;;;;;7.97;1.02;;;18.70;49.20;;;;;;5004339;28;20292;-79
2022/09/17 07:50:47;;;;;;;4.05;0.70;;;17.70;51.90;;;;;;5002569;28;20176;-79
2022/09/17 07:53:13;;;;;;;0.82;0.40;;;16.90;54.10;;;;;;5012474;28;20086;-79
2022/09/17 07:55:38;;;;;;;1.35;0.50;;;16.30;55.20;;;;;;4993446;28;20497;-77
2022/09/17 07:58:04;;;;;;;3.08;0.70;;;16.10;55.70;;;;;;5015496;28;20052;-84
2022/09/17 08:00:30;;;;;;;2.55;0.80;;;15.90;56.90;;;;;;5011524;28;20014;-82
2022/09/17 08:02:56;;;;;;;1.25;0.50;;;15.90;57.30;;;;;;5013388;28;20030;-75
2022/09/17 08:05:23;;;;;;;1.02;0.57;;;16.10;56.70;;;;;;5016598;28;20040;-80
2022/09/17 08:07:53;;;;;;;2.38;0.40;;;16.70;54.60;;;;;;4998880;28;20112;-82
2022/09/17 08:10:21;;;;;;;1.80;0.50;;;17.50;52.40;;;;;;5016938;28;20026;-83
2022/09/17 08:12:48;;;;;;;4.53;0.70;;;17.80;51.10;;;;;;4993668;28;20065;-79
2022/09/17 08:15:15;;;;;;;1.05;0.50;;;17.50;51.80;;;;;;5027110;28;20026;-79
2022/09/17 08:17:49;;;;;;;0.63;0.40;;;17.20;52.00;;;;;;5024680;28;20064;-80
2022/09/17 08:20:16;;;;;;;2.10;0.60;;;16.80;53.10;;;;;;5014573;28;21437;-80
2022/09/17 08:22:42;;;;;;;1.45;0.60;;;16.50;52.90;;;;;;5014233;28;20080;-79
2022/09/17 08:25:09;;;;;;;3.25;0.80;;;16.30;53.30;;;;;;4998219;28;20029;-79
2022/09/17 08:30:22;;;;;;;1.30;0.50;;;16.00;54.90;;;;;;5008730;28;20034;-79
2022/09/17 08:32:48;;;;;;;2.42;0.88;;;16.00;55.60;;;;;;5028449;28;20456;-82
2022/09/17 08:35:15;;;;;;;1.00;0.60;;;16.00;54.70;;;;;;5014867;28;20029;-81
2022/09/17 08:37:41;;;;;;;2.60;0.60;;;15.90;53.80;;;;;;5013603;28;20108;-80
2022/09/17 08:40:15;;;;;;;1.92;0.80;;;15.90;53.60;;;;;;5014214;28;20022;-79
2022/09/17 08:42:56;;;;;;;1.10;0.50;;;16.00;55.40;;;;;;4996464;28;20049;-80
2022/09/17 08:45:22;;;;;;;4.00;0.70;;;16.00;55.40;;;;;;5015585;28;20053;-80
2022/09/17 08:47:48;;;;;;;0.98;0.52;;;16.10;55.10;;;;;;5014745;28;20037;-81
2022/09/17 08:50:18;;;;;;;2.28;0.50;;;16.10;54.10;;;;;;5016890;28;20040;-88
2022/09/17 08:53:05;;;;;;;4.47;0.80;;;16.10;54.60;;;;;;5016324;28;21023;-77
2022/09/17 08:55:39;;;;;;;1.38;0.70;;;16.30;54.30;;;;;;5017838;28;20033;-81
2022/09/17 08:58:20;;;;;;;2.53;1.95;;;16.50;54.40;;;;;;4995502;28;20363;-80
2022/09/17 09:00:56;;;;;;;0.93;0.57;;;16.80;51.20;;;;;;5019106;28;20030;-83
2022/09/17 09:03:46;;;;;;;3.97;1.45;;;17.30;50.10;;;;;;5004105;28;20018;-79
2022/09/17 09:06:14;;;;;;;3.20;0.90;;;18.00;50.60;;;;;;5007644;28;20405;-81
2022/09/17 09:08:50;;;;;;;1.95;1.00;;;19.00;48.00;;;;;;5013139;28;20442;-80
2022/09/17 09:11:26;;;;;;;2.08;0.70;;;20.10;44.80;;;;;;4999498;28;20025;-80
2022/09/17 09:14:11;;;;;;;2.45;0.50;;;20.90;43.50;;;;;;4997039;28;20485;-83
2022/09/17 09:16:40;;;;;;;0.88;0.50;;;21.10;42.00;;;;;;4994317;28;20025;-80
2022/09/17 09:19:29;;;;;;;1.50;0.47;;;20.80;42.30;;;;;;5017465;28;20031;-81
2022/09/17 09:22:03;;;;;;;2.25;0.50;;;20.00;44.10;;;;;;5012725;28;20034;-78
2022/09/17 09:24:44;;;;;;;1.88;0.43;;;19.40;44.70;;;;;;5000065;28;20733;-79
2022/09/17 09:27:22;;;;;;;4.85;1.80;;;18.90;45.70;;;;;;5000233;28;20022;-76
2022/09/17 09:30:10;;;;;;;2.85;0.65;;;18.50;46.90;;;;;;5014672;28;20060;-79
2022/09/17 09:32:59;;;;;;;1.63;0.50;;;18.30;47.70;;;;;;5012691;28;20033;-80
2022/09/17 09:35:27;;;;;;;1.50;0.40;;;18.10;47.70;;;;;;5014542;28;20033;-80
2022/09/17 09:38:19;;;;;;;2.58;1.52;;;17.90;47.70;;;;;;5014011;28;20096;-80
2022/09/17 09:40:57;;;;;;;1.33;0.70;;;17.80;49.10;;;;;;5014353;28;20042;-78
2022/09/17 09:43:46;;;;;;;2.17;0.60;;;17.80;47.30;;;;;;4995258;28;20072;-79
2022/09/17 09:46:14;;;;;;;4.97;1.17;;;17.60;47.70;;;;;;5013475;28;20026;-78
2022/09/17 09:48:40;;;;;;;1.20;0.50;;;17.50;48.50;;;;;;4992723;28;20088;-81
2022/09/17 09:51:24;;;;;;;1.40;0.40;;;17.50;46.90;;;;;;4995321;28;20030;-79
2022/09/17 09:54:32;;;;;;;2.67;0.60;;;17.60;48.30;;;;;;5010434;28;20025;-80
2022/09/17 09:57:06;;;;;;;1.50;0.40;;;17.60;46.90;;;;;;5013848;28;20018;-78
2022/09/17 09:59:34;;;;;;;1.75;0.50;;;17.70;46.60;;;;;;4997567;28;20042;-77
2022/09/17 10:02:00;;;;;;;3.05;0.55;;;17.70;45.60;;;;;;5012866;28;20025;-77
2022/09/17 10:04:28;;;;;;;3.08;0.95;;;17.80;46.30;;;;;;5014075;28;20079;-77
2022/09/17 10:07:08;;;;;;;2.55;0.70;;;18.00;44.90;;;;;;5015410;28;20443;-78
2022/09/17 10:09:37;;;;;;;2.55;0.95;;;18.20;44.70;;;;;;5013063;28;20517;-77
2022/09/17 10:12:14;;;;;;;1.02;0.68;;;18.60;44.60;;;;;;5012745;28;20084;-78
2022/09/17 10:14:41;;;;;;;2.03;0.60;;;18.70;44.00;;;;;;5011363;28;20093;-77
2022/09/17 10:17:20;;;;;;;2.88;0.50;;;18.50;44.90;;;;;;5015487;28;20041;-77
2022/09/17 10:20:13;;;;;;;2.00;0.63;;;18.40;43.30;;;;;;5014053;28;20018;-77
2022/09/17 10:22:43;;;;;;;2.60;0.70;;;18.30;43.90;;;;;;5014390;28;20025;-77
2022/09/17 10:25:32;;;;;;;1.10;0.65;;;18.20;44.00;;;;;;5013249;28;20184;-77
2022/09/17 10:28:01;;;;;;;1.35;0.75;;;18.20;45.00;;;;;;5030111;28;20105;-77
2022/09/17 10:30:27;;;;;;;2.45;0.60;;;18.30;43.80;;;;;;4997889;28;20026;-77
2022/09/17 10:33:30;;;;;;;1.48;0.60;;;18.10;44.10;;;;;;5014410;28;20033;-75
2022/09/17 10:36:03;;;;;;;0.95;0.50;;;18.10;43.70;;;;;;5028637;28;20387;-76
2022/09/17 10:38:40;;;;;;;1.63;0.68;;;18.20;42.80;;;;;;5014771;28;20050;-76
2022/09/17 10:41:12;;;;;;;1.20;0.60;;;18.20;43.60;;;;;;5014139;28;20065;-77
2022/09/17 10:43:38;;;;;;;0.73;0.40;;;18.20;43.50;;;;;;5010931;28;20045;-78
2022/09/17 10:46:06;;;;;;;3.30;0.63;;;18.20;42.60;;;;;;4996534;28;20029;-77
2022/09/17 10:48:42;;;;;;;0.90;0.45;;;18.30;43.10;;;;;;5024908;28;20049;-78
2022/09/17 10:51:09;;;;;;;1.10;0.40;;;18.30;43.20;;;;;;5008817;28;20018;-77
2022/09/17 10:53:57;;;;;;;2.70;0.80;;;18.30;43.40;;;;;;5024547;28;20022;-75
2022/09/17 10:56:32;;;;;;;1.80;0.85;;;18.30;43.30;;;;;;5007538;28;20026;-75
2022/09/17 10:59:27;;;;;;;2.85;0.95;;;18.40;43.30;;;;;;5014326;28;20021;-76
2022/09/17 11:01:59;;;;;;;1.38;0.60;;;18.50;42.60;;;;;;5006594;28;20030;-76
2022/09/17 11:04:53;;;;;;;2.50;0.85;;;18.50;42.50;;;;;;5019316;28;20085;-77
2022/09/17 11:07:53;;;;;;;2.08;1.00;;;18.50;42.40;;;;;;5015867;28;20032;-77
2022/09/17 11:10:44;;;;;;;1.90;0.60;;;18.60;41.60;;;;;;4996437;28;20030;-78
2022/09/17 11:13:09;;;;;;;1.67;0.50;;;18.50;41.90;;;;;;4996040;28;21252;-76
2022/09/17 11:16:10;;;;;;;2.58;0.60;;;18.60;42.30;;;;;;4996226;28;20038;-76
2022/09/17 11:18:51;;;;;;;0.93;0.50;;;18.60;41.20;;;;;;4996552;28;20102;-76
2022/09/17 11:21:34;;;;;;;0.68;0.47;;;18.70;41.60;;;;;;4996295;28;20117;-76
2022/09/17 11:24:21;;;;;;;1.48;0.68;;;18.60;40.50;;;;;;4996461;28;20097;-76
2022/09/17 11:27:27;;;;;;;1.00;0.60;;;18.70;41.20;;;;;;4996220;28;20053;-77
2022/09/17 11:30:33;;;;;;;1.95;0.63;;;18.70;42.00;;;;;;4942626;29;20063;-76
2022/09/17 11:33:05;;;;;;;1.20;0.50;;;18.80;40.60;;;;;;4897351;29;20044;-77
2022/09/17 11:35:36;;;;;;;2.63;0.60;;;18.80;40.90;;;;;;4996005;28;20075;-77
2022/09/17 11:38:25;;;;;;;1.08;0.45;;;18.80;39.50;;;;;;4997811;28;20056;-80
2022/09/17 11:41:12;;;;;;;0.98;0.50;;;18.80;40.50;;;;;;5017051;28;20110;-77
2022/09/17 11:43:48;;;;;;;1.92;0.45;;;18.90;41.60;;;;;;5016183;28;20090;-82
2022/09/17 11:46:39;;;;;;;3.70;1.00;;;19.00;41.80;;;;;;5031173;28;20029;-78
2022/09/17 11:49:13;;;;;;;1.65;0.65;;;19.00;41.90;;;;;;5026156;28;20046;-81
2022/09/17 11:51:46;;;;;;;1.90;0.50;;;19.10;40.80;;;;;;5016729;28;20029;-79
2022/09/17 11:54:40;;;;;;;0.80;0.50;;;19.10;40.40;;;;;;5012481;28;20026;-82
2022/09/17 11:57:32;;;;;;;1.23;0.60;;;19.10;40.00;;;;;;4996606;28;20109;-84
2022/09/17 12:00:07;;;;;;;1.13;0.65;;;19.10;40.30;;;;;;5013526;28;20030;-81
2022/09/17 12:03:05;;;;;;;2.70;0.93;;;19.10;40.20;;;;;;5008626;28;20033;-81
2022/09/17 12:05:40;;;;;;;1.83;0.70;;;19.20;41.00;;;;;;5011108;28;20034;-82
2022/09/17 12:08:31;;;;;;;2.85;0.88;;;19.20;41.70;;;;;;4996588;28;20022;-86
2022/09/17 12:11:05;;;;;;;5.43;0.70;;;19.30;40.40;;;;;;4997054;28;20509;-81
2022/09/17 12:13:35;;;;;;;2.28;0.75;;;19.30;40.90;;;;;;5015553;28;20081;-83
2022/09/17 12:16:12;;;;;;;1.42;0.52;;;19.40;40.00;;;;;;5014870;28;20033;-81
2022/09/17 12:19:00;;;;;;;2.17;0.60;;;19.40;40.70;;;;;;5012201;28;20657;-82
2022/09/17 12:21:44;;;;;;;1.20;0.52;;;19.40;40.50;;;;;;5026706;28;20136;-82
2022/09/17 12:24:21;;;;;;;1.27;0.60;;;19.40;40.80;;;;;;5022560;28;20440;-82
2022/09/17 12:27:09;;;;;;;2.90;0.50;;;19.50;40.60;;;;;;5012880;28;20037;-82
2022/09/17 12:30:12;;;;;;;2.67;0.90;;;19.50;40.20;;;;;;5024509;28;20085;-81
2022/09/17 12:33:02;;;;;;;1.50;0.60;;;19.50;40.00;;;;;;4995827;28;20040;-81
2022/09/17 12:35:48;;;;;;;1.15;0.50;;;19.50;40.80;;;;;;5022899;28;20030;-82
2022/09/17 12:38:23;;;;;;;2.63;0.60;;;19.60;40.60;;;;;;5011965;28;20441;-82
2022/09/17 12:41:15;;;;;;;2.97;0.70;;;19.70;40.30;;;;;;5013159;28;20026;-81
2022/09/17 12:44:05;;;;;;;1.40;0.60;;;19.60;38.70;;;;;;5006503;28;20039;-82
2022/09/17 12:46:33;;;;;;;;;;;19.50;39.90;;;;;;5010527;28;20417;-81
2022/09/17 12:49:27;;;;;;;1.45;0.60;;;19.70;40.10;;;;;;5019838;28;20361;-83
2022/09/17 12:51:59;;;;;;;1.45;0.60;;;19.70;39.20;;;;;;5009826;28;20410;-83
2022/09/17 12:55:10;;;;;;;2.90;0.82;;;19.70;39.20;;;;;;4999138;28;20493;-84
2022/09/17 12:58:00;;;;;;;2.22;0.68;;;19.70;39.30;;;;;;4982306;28;20157;-85
2022/09/17 13:00:27;;;;;;;2.33;0.60;;;19.80;39.60;;;;;;5013043;28;20085;-83
2022/09/17 13:03:21;;;;;;;2.83;0.75;;;19.80;38.40;;;;;;4996686;28;20030;-85
2022/09/17 13:06:10;;;;;;;1.98;0.50;;;19.80;39.50;;;;;;4989561;28;20413;-84
2022/09/17 13:09:10;;;;;;;2.33;0.60;;;19.90;39.00;;;;;;5011049;28;20037;-84
2022/09/17 13:11:41;;;;;;;0.90;0.40;;;19.90;38.80;;;;;;5005229;28;20408;-85
2022/09/17 13:14:24;;;;;;;1.75;0.47;;;19.90;38.80;;;;;;5008313;28;20033;-84
2022/09/17 13:17:09;;;;;;;4.35;0.57;;;20.00;39.20;;;;;;5028031;28;21644;-81
2022/09/17 13:22:49;;;;;;;2.40;0.52;;;20.00;38.60;;;;;;5013645;28;20060;-88
2022/09/17 13:25:18;;;;;;;2.83;0.70;;;20.00;38.50;;;;;;5010287;28;20034;-81